Time;durP1;ratioP1;P1;durP2;ratioP2;P2;SDS_P1;SDS_P2;PMS_P1;PMS_P2;Temp;Humidity;BMP_temperature;BMP_pressure;BME280_temperature;BME280_humidity;BME280_pressure;Samples;Min_cycle;Max_cycle;Signal;HPM_P1;HPM_P2
2024/03/01 00:01:37;;;;;;;12.82;8.82;;;11.40;85.00;;;;;;5034484;28;20079;-79
2024/03/01 00:04:02;;;;;;;12.82;9.00;;;11.40;85.00;;;;;;5051793;28;20071;-78
2024/03/01 00:06:28;;;;;;;13.45;9.13;;;11.30;85.00;;;;;;5034177;28;20051;-79
2024/03/01 00:08:54;;;;;;;12.55;8.65;;;11.30;85.00;;;;;;5033835;28;20061;-79
2024/03/01 00:11:19;;;;;;;12.40;8.27;;;11.30;85.00;;;;;;5034155;28;20037;-78
2024/03/01 00:13:45;;;;;;;12.98;9.02;;;11.40;85.10;;;;;;5033613;28;20031;-79
2024/03/01 00:16:10;;;;;;;13.15;8.95;;;11.40;85.20;;;;;;5051739;28;20082;-79
2024/03/01 00:18:36;;;;;;;12.73;8.40;;;11.40;85.20;;;;;;5033657;28;20115;-79
2024/03/01 00:21:01;;;;;;;13.27;8.70;;;11.30;85.10;;;;;;5034018;28;20044;-78
2024/03/01 00:23:27;;;;;;;13.15;8.90;;;11.40;85.20;;;;;;5032987;28;20508;-78
2024/03/01 00:25:53;;;;;;;13.40;8.88;;;11.40;85.20;;;;;;5033531;28;20055;-79
2024/03/01 00:28:20;;;;;;;12.30;8.40;;;11.40;85.30;;;;;;5033378;28;20029;-79
2024/03/01 00:30:45;;;;;;;12.20;8.52;;;11.40;85.30;;;;;;5033726;28;20027;-79
2024/03/01 00:33:11;;;;;;;12.90;8.60;;;11.40;85.20;;;;;;5033058;28;20021;-79
2024/03/01 00:35:37;;;;;;;12.07;8.35;;;11.40;85.30;;;;;;5032841;28;20044;-79
2024/03/01 00:38:03;;;;;;;12.20;8.48;;;11.40;85.40;;;;;;5051281;28;20039;-79
2024/03/01 00:40:28;;;;;;;13.60;8.88;;;11.40;85.40;;;;;;5033511;28;20025;-79
2024/03/01 00:42:54;;;;;;;13.40;9.23;;;11.30;85.20;;;;;;5033447;28;20035;-79
2024/03/01 00:45:20;;;;;;;13.70;9.00;;;11.40;85.30;;;;;;5033350;28;20033;-79
2024/03/01 00:47:47;;;;;;;12.20;8.38;;;11.40;85.40;;;;;;5050932;28;20039;-78
2024/03/01 00:50:13;;;;;;;13.20;8.85;;;11.40;85.40;;;;;;5033451;28;20032;-79
2024/03/01 00:52:38;;;;;;;13.50;9.05;;;11.40;85.40;;;;;;5033213;28;20025;-79
2024/03/01 00:55:05;;;;;;;13.20;8.98;;;11.40;85.40;;;;;;5033215;28;20013;-79
2024/03/01 00:57:32;;;;;;;13.57;8.82;;;11.40;85.50;;;;;;5033195;28;20082;-78
2024/03/01 00:59:58;;;;;;;13.13;8.98;;;11.30;85.50;;;;;;5033204;28;20032;-79
2024/03/01 01:02:24;;;;;;;12.75;8.73;;;11.40;85.60;;;;;;5051038;28;20025;-79
2024/03/01 01:04:49;;;;;;;12.57;8.45;;;11.40;85.60;;;;;;5050790;28;20470;-79
2024/03/01 01:07:16;;;;;;;12.88;8.82;;;11.40;85.60;;;;;;5032888;28;20029;-79
2024/03/01 01:09:42;;;;;;;12.63;8.68;;;11.40;85.60;;;;;;5032824;28;20029;-78
2024/03/01 01:12:07;;;;;;;12.75;8.90;;;11.40;85.60;;;;;;5033003;28;20021;-79
2024/03/01 01:14:33;;;;;;;14.10;9.65;;;11.30;85.50;;;;;;5050688;28;20033;-79
2024/03/01 01:16:58;;;;;;;12.68;8.50;;;11.30;86.00;;;;;;5032793;28;20497;-79
2024/03/01 01:19:24;;;;;;;12.70;8.52;;;11.40;85.60;;;;;;5050651;28;20117;-79
2024/03/01 01:21:49;;;;;;;14.05;8.93;;;11.30;85.60;;;;;;5032764;28;20028;-76
2024/03/01 01:24:15;;;;;;;12.25;8.93;;;11.30;85.60;;;;;;5032808;28;20028;-79
2024/03/01 01:26:40;;;;;;;13.15;9.27;;;11.30;85.60;;;;;;5032712;28;20519;-78
2024/03/01 01:29:06;;;;;;;13.75;9.43;;;11.40;85.60;;;;;;5032673;28;20171;-79
2024/03/01 01:31:31;;;;;;;13.27;9.20;;;11.30;85.60;;;;;;5032984;28;20029;-79
2024/03/01 01:33:57;;;;;;;12.98;8.80;;;11.30;85.60;;;;;;5032383;28;20501;-79
2024/03/01 01:36:22;;;;;;;14.13;9.40;;;11.30;85.60;;;;;;5050537;28;20029;-79
2024/03/01 01:38:48;;;;;;;13.90;9.05;;;11.30;85.70;;;;;;5032635;28;20407;-79
2024/03/01 01:41:13;;;;;;;14.10;10.07;;;11.30;85.60;;;;;;5036043;28;20028;-79
2024/03/01 01:43:42;;;;;;;14.20;9.48;;;11.30;85.70;;;;;;5036653;28;20032;-79
2024/03/01 01:46:12;;;;;;;14.75;9.82;;;11.30;85.70;;;;;;5036803;28;20087;-79
2024/03/01 01:48:38;;;;;;;12.55;9.13;;;11.30;85.70;;;;;;5054313;28;20029;-79
2024/03/01 01:51:04;;;;;;;12.50;8.43;;;11.30;85.70;;;;;;5036553;28;20531;-79
2024/03/01 01:53:31;;;;;;;13.07;9.25;;;11.30;85.70;;;;;;5054671;28;20516;-79
2024/03/01 01:55:58;;;;;;;13.32;9.05;;;11.30;85.70;;;;;;5036588;28;20035;-79
2024/03/01 01:58:23;;;;;;;14.65;10.07;;;11.30;85.70;;;;;;5036418;28;20029;-79
2024/03/01 02:00:49;;;;;;;13.80;9.13;;;11.30;85.70;;;;;;5054386;28;20032;-79
2024/03/01 02:03:16;;;;;;;13.30;9.20;;;11.40;85.80;;;;;;5036415;28;20523;-79
2024/03/01 02:05:41;;;;;;;14.18;9.50;;;11.30;85.70;;;;;;5054201;28;20070;-79
2024/03/01 02:08:07;;;;;;;13.57;9.10;;;11.30;85.70;;;;;;5036167;28;20037;-79
2024/03/01 02:10:32;;;;;;;13.80;9.43;;;11.30;85.70;;;;;;5037027;28;20028;-79
2024/03/01 02:13:02;;;;;;;14.02;9.70;;;11.30;85.80;;;;;;5036069;28;20025;-78
2024/03/01 02:15:29;;;;;;;12.73;8.90;;;11.30;85.80;;;;;;5036292;28;20568;-79
2024/03/01 02:17:55;;;;;;;14.48;9.88;;;11.30;85.80;;;;;;5054292;28;20461;-79
2024/03/01 02:20:23;;;;;;;13.93;9.68;;;11.30;85.80;;;;;;5054002;28;20035;-78
2024/03/01 02:22:50;;;;;;;14.07;9.32;;;11.30;85.80;;;;;;5035810;28;20092;-78
2024/03/01 02:25:16;;;;;;;12.85;9.45;;;11.40;85.90;;;;;;5037792;28;20024;-79
2024/03/01 02:27:42;;;;;;;13.85;9.93;;;11.20;85.80;;;;;;5055565;28;20028;-79
2024/03/01 02:30:09;;;;;;;14.85;10.10;;;11.30;85.80;;;;;;5037998;28;20078;-79
2024/03/01 02:32:35;;;;;;;14.57;10.20;;;11.30;85.80;;;;;;5055383;28;20023;-79
2024/03/01 02:35:01;;;;;;;14.23;9.65;;;11.30;85.80;;;;;;5037831;28;20021;-78
2024/03/01 02:37:26;;;;;;;12.80;9.05;;;11.30;85.80;;;;;;5055343;28;20481;-79
2024/03/01 02:39:52;;;;;;;14.35;9.73;;;11.30;85.80;;;;;;5055243;28;20029;-78
2024/03/01 02:42:17;;;;;;;14.40;9.73;;;11.30;85.70;;;;;;5055446;28;20061;-78
2024/03/01 02:44:43;;;;;;;15.20;10.13;;;11.30;85.70;;;;;;5054980;28;20048;-78
2024/03/01 02:47:08;;;;;;;14.65;10.15;;;11.30;85.80;;;;;;5055167;28;20052;-79
2024/03/01 02:49:34;;;;;;;13.48;8.98;;;11.30;85.70;;;;;;5037305;28;20028;-78
2024/03/01 02:51:59;;;;;;;13.85;9.68;;;11.30;85.70;;;;;;5037020;28;20078;-79
2024/03/01 02:54:25;;;;;;;14.93;9.90;;;11.30;85.80;;;;;;5055055;28;20025;-78
2024/03/01 02:56:50;;;;;;;13.88;10.10;;;11.30;85.80;;;;;;5037188;28;20401;-78
2024/03/01 02:59:16;;;;;;;15.38;10.18;;;11.30;85.80;;;;;;5037168;28;20032;-78
2024/03/01 03:01:42;;;;;;;16.65;10.80;;;11.30;85.80;;;;;;5037417;28;20029;-79
2024/03/01 03:04:07;;;;;;;15.23;10.60;;;11.30;85.70;;;;;;5036923;28;20497;-78
2024/03/01 03:06:32;;;;;;;15.57;10.73;;;11.30;85.70;;;;;;5055060;28;20436;-78
2024/03/01 03:08:58;;;;;;;15.18;10.23;;;11.30;85.80;;;;;;5054749;28;20096;-79
2024/03/01 03:11:25;;;;;;;16.70;11.35;;;11.30;85.80;;;;;;5037027;28;20519;-78
2024/03/01 03:13:50;;;;;;;15.43;10.65;;;11.30;85.80;;;;;;5036844;28;20424;-77
2024/03/01 03:16:16;;;;;;;15.63;9.95;;;11.30;85.80;;;;;;5036743;28;20120;-78
2024/03/01 03:18:42;;;;;;;14.82;10.13;;;11.30;85.90;;;;;;5036378;28;20029;-79
2024/03/01 03:21:07;;;;;;;14.40;9.55;;;11.20;85.80;;;;;;5052696;28;20119;-79
2024/03/01 03:23:33;;;;;;;15.15;10.57;;;11.30;85.80;;;;;;5035088;28;20033;-79
2024/03/01 03:25:59;;;;;;;15.85;11.05;;;11.30;85.80;;;;;;5035024;28;20021;-79
2024/03/01 03:28:24;;;;;;;15.15;10.63;;;11.30;85.80;;;;;;5034900;28;20055;-78
2024/03/01 03:30:50;;;;;;;14.80;10.02;;;11.30;85.90;;;;;;5034945;28;20074;-79
2024/03/01 03:33:16;;;;;;;15.10;10.25;;;11.30;85.90;;;;;;5034785;28;20100;-79
2024/03/01 03:35:41;;;;;;;15.70;10.52;;;11.30;85.90;;;;;;5036005;28;20021;-79
2024/03/01 03:38:07;;;;;;;14.43;10.48;;;11.30;85.90;;;;;;5035939;28;20029;-78
2024/03/01 03:40:33;;;;;;;15.38;10.00;;;11.30;85.90;;;;;;5053987;28;20025;-79
2024/03/01 03:42:59;;;;;;;16.55;11.48;;;11.30;85.80;;;;;;5035980;28;20032;-79
2024/03/01 03:45:25;;;;;;;15.73;10.13;;;11.30;85.80;;;;;;5035727;28;20033;-79
2024/03/01 03:47:51;;;;;;;14.95;10.20;;;11.30;85.80;;;;;;5035966;28;20021;-78
2024/03/01 03:50:17;;;;;;;15.75;10.60;;;11.30;85.80;;;;;;5033043;28;20546;-77
2024/03/01 03:52:42;;;;;;;15.57;10.13;;;11.30;85.70;;;;;;5019672;28;20017;-78
2024/03/01 03:55:08;;;;;;;15.10;10.73;;;11.30;85.80;;;;;;5052605;28;20059;-78
2024/03/01 03:57:34;;;;;;;14.15;9.82;;;11.30;85.60;;;;;;5036099;28;20021;-78
2024/03/01 04:00:00;;;;;;;14.95;10.32;;;11.30;85.70;;;;;;5036105;28;20028;-78
2024/03/01 04:02:26;;;;;;;15.63;10.80;;;11.30;85.70;;;;;;5052167;28;20056;-78
2024/03/01 04:04:52;;;;;;;14.52;10.43;;;11.30;85.60;;;;;;5035899;28;20021;-78
2024/03/01 04:07:17;;;;;;;15.77;10.98;;;11.30;85.70;;;;;;5035727;28;20070;-78
2024/03/01 04:09:43;;;;;;;16.63;11.15;;;11.30;85.70;;;;;;5053682;28;20481;-78
2024/03/01 04:12:09;;;;;;;14.48;10.68;;;11.30;85.70;;;;;;5035722;28;20013;-78
2024/03/01 04:14:35;;;;;;;15.82;10.27;;;11.30;85.60;;;;;;5036009;28;20455;-79
2024/03/01 04:17:00;;;;;;;15.60;10.68;;;11.30;85.70;;;;;;5035616;28;20025;-80
2024/03/01 04:19:26;;;;;;;15.52;10.95;;;11.30;85.70;;;;;;5035679;28;20525;-78
2024/03/01 04:21:55;;;;;;;14.88;10.57;;;11.30;85.60;;;;;;5053174;28;20036;-78
2024/03/01 04:24:20;;;;;;;16.00;10.55;;;11.30;85.60;;;;;;5052255;28;20025;-79
2024/03/01 04:26:45;;;;;;;14.77;10.18;;;11.30;85.70;;;;;;5053404;28;20031;-79
2024/03/01 04:29:11;;;;;;;15.48;10.48;;;11.30;85.60;;;;;;5035174;28;20029;-79
2024/03/01 04:31:38;;;;;;;16.35;11.23;;;11.30;85.70;;;;;;5035332;28;20044;-79
2024/03/01 04:34:05;;;;;;;15.43;11.30;;;11.30;85.70;;;;;;5035586;28;20087;-79
2024/03/01 04:36:34;;;;;;;15.75;10.77;;;11.30;85.50;;;;;;5053209;28;20017;-79
2024/03/01 04:39:00;;;;;;;14.98;10.68;;;11.30;85.70;;;;;;5053121;28;20048;-79
2024/03/01 04:41:25;;;;;;;15.88;11.20;;;11.30;85.60;;;;;;5035217;28;20508;-79
2024/03/01 04:43:51;;;;;;;15.27;10.65;;;11.30;85.70;;;;;;5034889;28;20104;-78
2024/03/01 04:46:16;;;;;;;16.50;11.35;;;11.30;85.70;;;;;;5035032;28;20024;-78
2024/03/01 04:48:42;;;;;;;16.48;11.32;;;11.30;85.70;;;;;;5052664;28;20032;-78
2024/03/01 04:51:12;;;;;;;16.35;10.52;;;11.30;85.80;;;;;;5035207;28;20017;-78
2024/03/01 04:53:38;;;;;;;15.50;10.43;;;11.30;85.80;;;;;;5035089;28;20162;-78
2024/03/01 04:56:04;;;;;;;16.05;10.73;;;11.30;85.70;;;;;;5052886;28;20060;-78
2024/03/01 04:58:29;;;;;;;15.65;10.45;;;11.30;85.80;;;;;;5051520;28;20112;-79
2024/03/01 05:00:55;;;;;;;16.30;10.68;;;11.30;85.70;;;;;;5052713;28;20430;-79
2024/03/01 05:03:20;;;;;;;16.25;11.00;;;11.30;85.80;;;;;;5052641;28;20032;-79
2024/03/01 05:05:46;;;;;;;16.50;11.68;;;11.30;85.80;;;;;;5034792;28;20144;-79
2024/03/01 05:08:11;;;;;;;16.23;11.35;;;11.30;85.70;;;;;;5052450;28;20043;-79
2024/03/01 05:10:37;;;;;;;15.32;10.98;;;11.30;85.70;;;;;;5034177;28;20112;-81
2024/03/01 05:13:03;;;;;;;15.55;10.95;;;11.30;85.70;;;;;;5049256;28;20059;-79
2024/03/01 05:15:28;;;;;;;18.95;11.88;;;11.30;85.70;;;;;;5044858;28;20029;-80
2024/03/01 05:17:53;;;;;;;16.10;10.73;;;11.30;85.60;;;;;;5026492;28;20144;-79
2024/03/01 05:20:19;;;;;;;16.38;11.10;;;11.30;85.60;;;;;;5044321;28;20512;-79
2024/03/01 05:22:44;;;;;;;15.70;10.75;;;11.30;85.70;;;;;;5046485;28;20025;-80
2024/03/01 05:25:17;;;;;;;15.40;10.73;;;11.20;85.50;;;;;;5047193;28;20228;-79
2024/03/01 05:27:43;;;;;;;15.35;10.73;;;11.30;85.70;;;;;;5028379;28;20097;-79
2024/03/01 05:30:11;;;;;;;17.15;11.02;;;11.30;85.60;;;;;;5028986;28;20489;-81
2024/03/01 05:32:46;;;;;;;15.75;10.85;;;11.30;85.70;;;;;;5028463;28;20029;-80
2024/03/01 05:35:13;;;;;;;16.50;11.15;;;11.30;85.70;;;;;;5029022;28;20033;-79
2024/03/01 05:37:39;;;;;;;15.50;10.88;;;11.30;85.40;;;;;;5029436;28;20516;-79
2024/03/01 05:40:05;;;;;;;16.60;11.52;;;11.30;85.50;;;;;;5029014;28;20060;-78
2024/03/01 05:42:31;;;;;;;17.60;11.95;;;11.30;85.60;;;;;;5029323;28;20510;-80
2024/03/01 05:44:57;;;;;;;17.30;11.35;;;11.30;85.70;;;;;;5047259;28;20112;-79
2024/03/01 05:47:22;;;;;;;16.75;11.95;;;11.30;85.70;;;;;;5026853;28;20485;-80
2024/03/01 05:49:48;;;;;;;16.83;11.57;;;11.30;85.80;;;;;;5026543;28;20116;-78
2024/03/01 05:52:14;;;;;;;17.48;11.63;;;11.30;85.70;;;;;;5025359;28;20421;-78
2024/03/01 05:54:39;;;;;;;16.08;11.45;;;11.30;85.80;;;;;;5043319;28;20025;-77
2024/03/01 05:57:05;;;;;;;14.90;10.90;;;11.30;85.50;;;;;;5043649;28;20032;-77
2024/03/01 05:59:30;;;;;;;16.80;11.23;;;11.30;85.70;;;;;;5026900;28;20037;-78
2024/03/01 06:01:56;;;;;;;16.70;11.82;;;11.30;85.60;;;;;;5025368;28;20628;-78
2024/03/01 06:04:21;;;;;;;17.20;11.55;;;11.20;85.50;;;;;;5026647;28;20029;-77
2024/03/01 06:06:47;;;;;;;16.45;11.63;;;11.30;85.60;;;;;;5027078;28;20727;-78
2024/03/01 06:09:12;;;;;;;17.85;12.13;;;11.20;85.40;;;;;;5027168;28;20056;-77
2024/03/01 06:11:38;;;;;;;17.80;11.88;;;11.30;85.60;;;;;;5027471;28;20078;-78
2024/03/01 06:14:04;;;;;;;15.30;10.88;;;11.30;85.60;;;;;;5026640;28;20024;-77
2024/03/01 06:16:31;;;;;;;15.52;11.10;;;11.30;85.70;;;;;;5025796;28;20023;-78
2024/03/01 06:18:58;;;;;;;16.58;11.15;;;11.20;86.00;;;;;;5026682;28;20572;-80
2024/03/01 06:21:23;;;;;;;16.27;11.35;;;11.30;85.90;;;;;;5026305;28;20505;-77
2024/03/01 06:23:49;;;;;;;16.90;11.43;;;11.30;85.60;;;;;;5026405;28;20033;-79
2024/03/01 06:26:15;;;;;;;16.52;10.95;;;11.30;85.30;;;;;;5028272;28;20485;-77
2024/03/01 06:28:42;;;;;;;17.55;11.77;;;11.30;85.40;;;;;;5048536;28;20063;-78
2024/03/01 06:31:08;;;;;;;16.67;10.93;;;11.30;85.40;;;;;;5030768;28;20510;-77
2024/03/01 06:33:33;;;;;;;16.38;11.30;;;11.30;85.40;;;;;;5029524;28;20040;-78
2024/03/01 06:35:59;;;;;;;19.70;12.02;;;11.20;85.30;;;;;;5028108;28;20405;-77
2024/03/01 06:38:25;;;;;;;16.20;11.23;;;11.20;85.40;;;;;;5017953;28;20029;-77
2024/03/01 06:40:50;;;;;;;17.27;11.40;;;11.30;85.40;;;;;;5029921;28;20460;-76
2024/03/01 06:43:16;;;;;;;17.42;11.50;;;11.30;85.50;;;;;;5028780;28;20025;-77
2024/03/01 06:45:42;;;;;;;18.83;12.15;;;11.30;85.60;;;;;;5046654;28;20736;-77
2024/03/01 06:48:07;;;;;;;17.58;11.65;;;11.30;85.50;;;;;;5032862;28;20021;-78
2024/03/01 06:50:33;;;;;;;16.83;11.43;;;11.30;85.70;;;;;;5051397;28;20128;-78
2024/03/01 06:52:58;;;;;;;16.48;11.63;;;11.30;85.80;;;;;;5033908;28;20466;-78
2024/03/01 06:55:24;;;;;;;17.13;11.40;;;11.30;85.70;;;;;;5051756;28;20035;-78
2024/03/01 06:57:50;;;;;;;17.27;11.60;;;11.40;85.70;;;;;;5052353;28;20541;-78
2024/03/01 07:00:16;;;;;;;16.88;10.98;;;11.30;85.60;;;;;;5035217;28;20143;-78
2024/03/01 07:02:41;;;;;;;15.35;10.85;;;11.30;85.50;;;;;;5035258;28;20032;-78
2024/03/01 07:05:07;;;;;;;17.67;12.00;;;11.30;85.50;;;;;;5035385;28;20025;-78
2024/03/01 07:07:32;;;;;;;16.73;11.50;;;11.30;85.40;;;;;;5052839;28;20116;-78
2024/03/01 07:09:57;;;;;;;17.23;11.60;;;11.30;85.50;;;;;;5035228;28;20075;-78
2024/03/01 07:12:23;;;;;;;16.15;10.98;;;11.30;85.60;;;;;;5052745;28;20027;-79
2024/03/01 07:14:49;;;;;;;16.45;11.32;;;11.30;85.50;;;;;;5035114;28;20025;-78
2024/03/01 07:17:14;;;;;;;17.98;11.90;;;11.30;85.50;;;;;;5052950;28;20236;-78
2024/03/01 07:19:40;;;;;;;17.10;11.70;;;11.30;85.50;;;;;;5034971;28;20029;-78
2024/03/01 07:22:05;;;;;;;16.92;11.55;;;11.30;85.70;;;;;;5052828;28;20024;-78
2024/03/01 07:24:31;;;;;;;15.93;11.15;;;11.30;85.30;;;;;;5034866;28;20033;-78
2024/03/01 07:26:56;;;;;;;16.23;11.02;;;11.30;85.50;;;;;;5034959;28;20025;-78
2024/03/01 07:29:21;;;;;;;16.77;11.20;;;11.30;85.40;;;;;;5052581;28;20082;-78
2024/03/01 07:31:47;;;;;;;18.65;11.10;;;11.30;85.70;;;;;;5052415;28;20523;-77
2024/03/01 07:34:12;;;;;;;16.25;11.10;;;11.30;85.30;;;;;;5034741;28;20025;-78
2024/03/01 07:36:39;;;;;;;15.90;10.95;;;11.30;85.60;;;;;;5034378;28;20040;-78
2024/03/01 07:39:04;;;;;;;16.20;10.95;;;11.30;85.40;;;;;;5034582;28;20025;-78
2024/03/01 07:41:30;;;;;;;15.45;10.98;;;11.30;85.30;;;;;;5052626;28;20029;-78
2024/03/01 07:43:56;;;;;;;16.80;11.10;;;11.30;85.30;;;;;;5052784;28;20485;-79
2024/03/01 07:46:21;;;;;;;15.18;11.00;;;11.30;85.60;;;;;;5034737;28;20024;-78
2024/03/01 07:48:47;;;;;;;16.10;11.02;;;11.30;85.30;;;;;;5052537;28;20075;-78
2024/03/01 07:51:13;;;;;;;13.80;9.63;;;11.30;85.60;;;;;;5034421;28;20452;-78
2024/03/01 07:53:39;;;;;;;16.95;10.52;;;11.30;85.60;;;;;;5034358;28;20108;-78
2024/03/01 07:56:05;;;;;;;16.80;11.15;;;11.30;85.60;;;;;;5034636;28;20481;-78
2024/03/01 07:58:32;;;;;;;14.95;10.13;;;11.30;85.70;;;;;;5034719;28;20773;-78
2024/03/01 08:00:58;;;;;;;16.10;11.00;;;11.30;85.60;;;;;;5034598;28;20027;-79
2024/03/01 08:03:23;;;;;;;15.73;10.68;;;11.30;85.70;;;;;;5052035;28;20024;-79
2024/03/01 08:05:49;;;;;;;16.25;11.07;;;11.30;85.90;;;;;;5052245;28;20040;-78
2024/03/01 08:08:28;;;;;;;15.10;10.73;;;11.30;85.80;;;;;;5034344;28;20025;-78
2024/03/01 08:10:54;;;;;;;15.68;10.50;;;11.30;85.70;;;;;;5034132;28;20383;-78
2024/03/01 08:13:19;;;;;;;15.30;10.43;;;11.30;85.90;;;;;;5051682;28;20029;-78
2024/03/01 08:15:45;;;;;;;14.15;10.02;;;11.30;85.80;;;;;;5034061;28;20067;-78
2024/03/01 08:18:17;;;;;;;15.88;10.55;;;11.30;85.80;;;;;;5034106;28;20089;-78
2024/03/01 08:20:58;;;;;;;14.82;9.98;;;11.30;85.70;;;;;;5034026;28;20558;-78
2024/03/01 08:23:26;;;;;;;15.38;10.27;;;11.30;85.90;;;;;;5033558;28;20568;-78
2024/03/01 08:25:52;;;;;;;14.00;9.55;;;11.30;85.70;;;;;;5033683;28;20344;-78
2024/03/01 08:28:26;;;;;;;14.77;9.93;;;11.40;85.90;;;;;;5051289;28;20053;-78
2024/03/01 08:30:52;;;;;;;15.10;10.18;;;11.40;85.70;;;;;;5051593;28;20036;-78
2024/03/01 08:33:19;;;;;;;14.85;10.02;;;11.40;85.80;;;;;;5033192;28;20492;-78
2024/03/01 08:35:46;;;;;;;15.35;9.70;;;11.40;85.80;;;;;;5051567;28;20017;-78
2024/03/01 08:38:39;;;;;;;13.93;9.18;;;11.40;85.80;;;;;;5033583;28;20052;-79
2024/03/01 08:41:06;;;;;;;14.23;9.75;;;11.40;85.80;;;;;;5033589;28;20032;-78
2024/03/01 08:43:31;;;;;;;13.48;8.98;;;11.50;85.80;;;;;;5033074;28;20079;-77
2024/03/01 08:46:04;;;;;;;13.65;9.68;;;11.40;85.80;;;;;;5033404;28;20017;-78
2024/03/01 08:48:32;;;;;;;13.85;9.32;;;11.50;85.90;;;;;;5032962;28;20024;-78
2024/03/01 08:50:58;;;;;;;13.50;9.10;;;11.40;85.90;;;;;;5032910;28;20029;-77
2024/03/01 08:53:58;;;;;;;13.98;9.07;;;11.40;85.80;;;;;;5032996;28;20051;-78
2024/03/01 08:56:31;;;;;;;14.27;9.23;;;11.50;85.80;;;;;;5051243;28;20578;-78
2024/03/01 08:58:57;;;;;;;13.65;9.25;;;11.40;85.90;;;;;;5050952;28;20029;-78
2024/03/01 09:01:41;;;;;;;12.80;8.75;;;11.40;86.00;;;;;;5033158;28;20033;-78
2024/03/01 09:04:29;;;;;;;13.73;9.05;;;11.50;86.00;;;;;;5032910;28;20031;-78
2024/03/01 09:07:16;;;;;;;14.38;9.65;;;11.40;86.00;;;;;;5033050;28;20037;-78
2024/03/01 09:09:42;;;;;;;13.45;9.07;;;11.50;86.10;;;;;;5033164;28;20021;-78
2024/03/01 09:12:23;;;;;;;13.88;9.27;;;11.50;86.60;;;;;;5032923;28;20025;-78
2024/03/01 09:14:49;;;;;;;13.30;8.85;;;11.50;86.00;;;;;;5032864;28;20082;-78
2024/03/01 09:17:14;;;;;;;13.63;8.98;;;11.50;86.00;;;;;;5032929;28;20037;-78
2024/03/01 09:19:45;;;;;;;12.85;8.55;;;11.50;85.90;;;;;;5032734;28;20432;-78
2024/03/01 09:22:11;;;;;;;13.07;9.10;;;11.50;86.00;;;;;;5032695;28;20436;-78
2024/03/01 09:24:38;;;;;;;13.55;8.82;;;11.50;86.00;;;;;;5050656;28;20025;-78
2024/03/01 09:27:33;;;;;;;12.95;8.73;;;11.50;85.90;;;;;;5050549;28;20021;-78
2024/03/01 09:30:04;;;;;;;12.68;8.80;;;11.50;86.00;;;;;;5027205;28;20088;-77
2024/03/01 09:32:33;;;;;;;12.57;8.25;;;11.50;85.90;;;;;;5032628;28;20051;-78
2024/03/01 09:34:59;;;;;;;12.18;8.38;;;11.50;86.00;;;;;;5050802;28;20025;-78
2024/03/01 09:37:26;;;;;;;12.85;8.93;;;11.50;85.90;;;;;;5032712;28;20473;-76
2024/03/01 09:39:52;;;;;;;12.85;8.70;;;11.50;86.00;;;;;;5050661;28;20401;-78
2024/03/01 09:42:28;;;;;;;13.15;8.68;;;11.50;86.00;;;;;;5031274;28;20025;-78
2024/03/01 09:45:17;;;;;;;12.30;8.18;;;11.50;86.10;;;;;;5012873;28;20025;-78
2024/03/01 09:48:06;;;;;;;12.75;8.57;;;11.50;86.00;;;;;;5012736;28;20057;-78
2024/03/01 09:50:59;;;;;;;12.95;8.65;;;11.50;85.90;;;;;;5012578;28;20022;-77
2024/03/01 09:53:44;;;;;;;12.60;8.00;;;11.50;86.20;;;;;;5012674;28;20418;-78
2024/03/01 09:56:26;;;;;;;12.48;8.05;;;11.50;86.00;;;;;;5013044;28;20109;-78
2024/03/01 09:59:04;;;;;;;11.77;8.18;;;11.50;86.20;;;;;;5013145;28;20029;-78
2024/03/01 10:01:34;;;;;;;12.95;8.07;;;11.50;86.30;;;;;;5014891;28;20032;-78
2024/03/01 10:04:12;;;;;;;11.65;8.43;;;11.50;86.30;;;;;;5016692;28;20029;-78
2024/03/01 10:06:59;;;;;;;12.15;7.78;;;11.50;86.40;;;;;;5034694;28;20033;-78
2024/03/01 10:09:48;;;;;;;12.25;7.93;;;11.50;86.40;;;;;;5016293;28;20113;-78
2024/03/01 10:12:23;;;;;;;12.10;7.75;;;11.50;86.40;;;;;;4999997;28;20029;-78
2024/03/01 10:15:00;;;;;;;12.68;7.80;;;11.50;86.30;;;;;;5016590;28;20021;-78
2024/03/01 10:17:59;;;;;;;11.55;7.63;;;11.50;86.50;;;;;;5016242;28;20083;-77
2024/03/01 10:20:25;;;;;;;11.13;7.28;;;11.50;86.40;;;;;;5034187;28;20079;-77
2024/03/01 10:23:19;;;;;;;12.23;7.85;;;11.50;86.40;;;;;;5015915;28;20033;-78
2024/03/01 10:26:02;;;;;;;12.10;7.63;;;11.50;86.40;;;;;;5034168;28;20072;-77
2024/03/01 10:28:45;;;;;;;11.05;7.57;;;11.50;86.50;;;;;;5016266;28;20105;-78
2024/03/01 10:31:20;;;;;;;10.88;7.60;;;11.50;86.50;;;;;;5016381;28;20056;-79
2024/03/01 10:33:57;;;;;;;12.05;7.72;;;11.50;86.50;;;;;;5015775;28;20113;-80
2024/03/01 10:36:43;;;;;;;11.15;7.30;;;11.50;86.60;;;;;;5016122;28;20032;-80
2024/03/01 10:39:14;;;;;;;12.20;7.82;;;11.50;86.50;;;;;;5016180;28;20021;-79
2024/03/01 10:42:05;;;;;;;11.25;7.07;;;11.50;86.60;;;;;;5015965;28;20087;-78
2024/03/01 10:44:47;;;;;;;11.00;7.65;;;11.50;86.60;;;;;;5015729;28;20033;-78
2024/03/01 10:47:22;;;;;;;10.32;7.05;;;11.50;86.50;;;;;;5015796;28;20466;-79
2024/03/01 10:50:15;;;;;;;10.10;7.13;;;11.50;86.40;;;;;;5015530;28;20036;-80
2024/03/01 10:52:47;;;;;;;9.98;6.78;;;11.50;86.50;;;;;;5015536;28;20026;-79
2024/03/01 10:55:23;;;;;;;10.35;7.07;;;11.50;86.60;;;;;;5015783;28;20033;-79
2024/03/01 10:58:10;;;;;;;10.02;6.43;;;11.50;86.60;;;;;;5015512;28;20041;-79
2024/03/01 11:00:48;;;;;;;11.65;7.45;;;11.50;86.60;;;;;;5015844;28;20049;-78
2024/03/01 11:03:45;;;;;;;11.77;7.38;;;11.50;86.60;;;;;;5015338;28;20026;-80
2024/03/01 11:06:41;;;;;;;10.63;7.03;;;11.50;86.60;;;;;;5015043;28;20509;-80
2024/03/01 11:09:10;;;;;;;10.60;6.88;;;11.50;86.60;;;;;;5015625;28;20033;-78
2024/03/01 11:12:07;;;;;;;10.68;6.88;;;11.50;86.60;;;;;;5014965;28;20383;-79
2024/03/01 11:14:36;;;;;;;10.35;6.63;;;11.50;86.60;;;;;;5015092;28;20038;-80
2024/03/01 11:17:05;;;;;;;10.68;6.90;;;11.50;86.60;;;;;;5033071;28;20111;-80
2024/03/01 11:19:33;;;;;;;10.55;6.90;;;11.50;86.60;;;;;;5033150;28;20025;-80
2024/03/01 11:22:08;;;;;;;10.57;6.90;;;11.50;86.60;;;;;;5032882;28;20029;-79
2024/03/01 11:24:38;;;;;;;10.63;6.95;;;11.50;86.60;;;;;;5032750;28;20041;-79
2024/03/01 11:27:08;;;;;;;10.75;7.22;;;11.50;86.60;;;;;;5015006;28;20036;-79
2024/03/01 11:29:41;;;;;;;10.27;6.65;;;11.50;86.60;;;;;;5032648;28;20425;-80
2024/03/01 11:32:28;;;;;;;10.27;6.28;;;11.50;86.60;;;;;;5032582;28;20798;-80
2024/03/01 11:35:06;;;;;;;11.27;7.22;;;11.50;86.60;;;;;;5032628;28;20029;-80
2024/03/01 11:37:47;;;;;;;10.60;7.00;;;11.50;86.60;;;;;;5014927;28;20041;-80
2024/03/01 11:40:37;;;;;;;10.38;6.72;;;11.50;86.60;;;;;;5031350;28;20040;-80
2024/03/01 11:43:32;;;;;;;9.93;6.55;;;11.50;86.50;;;;;;5032401;28;20037;-80
2024/03/01 11:46:00;;;;;;;10.88;6.80;;;11.50;86.60;;;;;;5014698;28;20040;-81
2024/03/01 11:48:58;;;;;;;10.18;6.32;;;11.50;86.50;;;;;;5014616;28;20033;-80
2024/03/01 11:51:38;;;;;;;10.00;6.40;;;11.50;86.60;;;;;;5014345;28;20097;-80
2024/03/01 11:54:26;;;;;;;9.88;6.45;;;11.50;86.60;;;;;;5014416;28;20033;-79
2024/03/01 11:57:01;;;;;;;9.98;6.38;;;11.50;86.50;;;;;;5032484;28;20029;-80
2024/03/01 11:59:45;;;;;;;10.07;6.35;;;11.60;86.60;;;;;;5014413;28;20036;-79
2024/03/01 12:02:23;;;;;;;9.45;6.35;;;11.60;86.50;;;;;;5014405;28;20490;-79
2024/03/01 12:04:57;;;;;;;10.05;6.10;;;11.60;86.50;;;;;;5032125;28;20076;-79
2024/03/01 12:07:40;;;;;;;10.90;6.80;;;11.70;86.50;;;;;;5014363;28;20033;-79
2024/03/01 12:10:31;;;;;;;9.50;6.30;;;11.70;86.20;;;;;;5014371;28;20422;-79
2024/03/01 12:13:05;;;;;;;9.05;6.00;;;11.70;86.20;;;;;;5013909;28;20569;-80
2024/03/01 12:15:52;;;;;;;10.32;6.57;;;11.70;86.10;;;;;;5014381;28;20080;-79
2024/03/01 12:18:27;;;;;;;8.88;5.75;;;11.70;86.10;;;;;;5014209;28;20033;-80
2024/03/01 12:21:21;;;;;;;9.05;5.95;;;11.70;86.00;;;;;;5014055;28;20036;-80
2024/03/01 12:24:15;;;;;;;9.70;6.53;;;11.80;86.00;;;;;;5008728;28;20040;-79
2024/03/01 12:26:50;;;;;;;9.40;6.25;;;11.80;85.70;;;;;;5013889;28;20056;-79
2024/03/01 12:29:27;;;;;;;9.45;5.95;;;11.90;85.60;;;;;;5013720;28;20029;-79
2024/03/01 12:32:02;;;;;;;9.50;6.10;;;11.90;85.50;;;;;;5013810;28;20021;-78
2024/03/01 12:34:49;;;;;;;9.73;5.82;;;11.90;85.40;;;;;;5031541;28;20025;-79
2024/03/01 12:37:34;;;;;;;8.80;5.90;;;11.90;85.40;;;;;;5013872;28;20079;-80
2024/03/01 12:40:16;;;;;;;9.43;5.95;;;11.90;85.40;;;;;;5013852;28;20022;-79
2024/03/01 12:42:57;;;;;;;9.20;5.95;;;11.90;85.50;;;;;;5013411;28;20029;-79
2024/03/01 12:45:37;;;;;;;9.98;6.20;;;11.90;85.60;;;;;;5013535;28;20033;-79
2024/03/01 12:48:26;;;;;;;8.98;5.60;;;11.90;85.70;;;;;;5013811;28;20029;-80